sensor_id;sensor_type;location;lat;lon;timestamp;temperature;humidity
21672;DHT22;10997;52.242;8.168;2022-09-27T00:04:13;10.70;99.90
21672;DHT22;10997;52.242;8.168;2022-09-27T00:09:13;10.70;99.90
21672;DHT22;10997;52.242;8.168;2022-09-27T00:14:15;10.70;99.90
21672;DHT22;10997;52.242;8.168;2022-09-27T00:19:18;10.70;99.90
21672;DHT22;10997;52.242;8.168;2022-09-27T00:24:21;10.70;99.90
21672;DHT22;10997;52.242;8.168;2022-09-27T00:29:22;10.60;99.90
21672;DHT22;10997;52.242;8.168;2022-09-27T00:34:24;10.60;99.90
21672;DHT22;10997;52.242;8.168;2022-09-27T00:39:25;10.60;99.90
21672;DHT22;10997;52.242;8.168;2022-09-27T00:54:40;10.50;99.90
21672;DHT22;10997;52.242;8.168;2022-09-27T00:59:47;10.40;99.90
21672;DHT22;10997;52.242;8.168;2022-09-27T01:04:50;10.40;99.90
21672;DHT22;10997;52.242;8.168;2022-09-27T01:09:50;10.40;99.90
21672;DHT22;10997;52.242;8.168;2022-09-27T01:21:00;10.40;99.90
21672;DHT22;10997;52.242;8.168;2022-09-27T01:31:32;10.30;99.90
21672;DHT22;10997;52.242;8.168;2022-09-27T01:37:25;10.30;99.90
21672;DHT22;10997;52.242;8.168;2022-09-27T01:48:01;10.20;99.90
21672;DHT22;10997;52.242;8.168;2022-09-27T01:53:31;10.20;99.90
21672;DHT22;10997;52.242;8.168;2022-09-27T01:58:41;10.20;99.90
21672;DHT22;10997;52.242;8.168;2022-09-27T02:03:47;10.20;99.90
21672;DHT22;10997;52.242;8.168;2022-09-27T02:09:05;10.10;99.90
21672;DHT22;10997;52.242;8.168;2022-09-27T02:14:19;10.20;99.90
21672;DHT22;10997;52.242;8.168;2022-09-27T02:24:47;10.10;99.90
21672;DHT22;10997;52.242;8.168;2022-09-27T02:29:59;10.10;99.90
21672;DHT22;10997;52.242;8.168;2022-09-27T02:35:06;10.10;99.90
21672;DHT22;10997;52.242;8.168;2022-09-27T02:40:09;10.00;99.90
21672;DHT22;10997;52.242;8.168;2022-09-27T02:45:12;10.00;99.90
21672;DHT22;10997;52.242;8.168;2022-09-27T02:50:19;10.10;99.90
21672;DHT22;10997;52.242;8.168;2022-09-27T03:06:12;10.00;99.90
21672;DHT22;10997;52.242;8.168;2022-09-27T03:11:13;10.00;99.90
21672;DHT22;10997;52.242;8.168;2022-09-27T03:16:14;10.00;99.90
21672;DHT22;10997;52.242;8.168;2022-09-27T03:21:15;10.00;99.90
21672;DHT22;10997;52.242;8.168;2022-09-27T03:26:16;10.00;99.90
21672;DHT22;10997;52.242;8.168;2022-09-27T03:31:16;9.90;99.90
21672;DHT22;10997;52.242;8.168;2022-09-27T03:36:18;9.90;99.90
21672;DHT22;10997;52.242;8.168;2022-09-27T03:41:19;9.90;99.90
21672;DHT22;10997;52.242;8.168;2022-09-27T03:46:20;9.80;99.90
21672;DHT22;10997;52.242;8.168;2022-09-27T03:51:21;9.70;99.90
21672;DHT22;10997;52.242;8.168;2022-09-27T03:56:22;9.70;99.90
21672;DHT22;10997;52.242;8.168;2022-09-27T04:01:22;9.70;99.90
21672;DHT22;10997;52.242;8.168;2022-09-27T04:06:25;9.70;99.90
21672;DHT22;10997;52.242;8.168;2022-09-27T04:11:26;9.70;99.90
21672;DHT22;10997;52.242;8.168;2022-09-27T04:16:27;9.60;99.90
21672;DHT22;10997;52.242;8.168;2022-09-27T04:21:27;9.60;99.90
21672;DHT22;10997;52.242;8.168;2022-09-27T04:26:28;9.60;99.90
21672;DHT22;10997;52.242;8.168;2022-09-27T04:31:29;9.60;99.90
21672;DHT22;10997;52.242;8.168;2022-09-27T04:36:30;9.60;99.90
21672;DHT22;10997;52.242;8.168;2022-09-27T04:41:31;9.50;99.90
21672;DHT22;10997;52.242;8.168;2022-09-27T04:46:32;9.50;99.90
21672;DHT22;10997;52.242;8.168;2022-09-27T04:51:33;9.40;99.90
21672;DHT22;10997;52.242;8.168;2022-09-27T04:56:34;9.40;99.90
21672;DHT22;10997;52.242;8.168;2022-09-27T05:01:35;9.30;99.90
21672;DHT22;10997;52.242;8.168;2022-09-27T05:06:36;9.30;99.90
21672;DHT22;10997;52.242;8.168;2022-09-27T05:11:37;9.20;99.90
21672;DHT22;10997;52.242;8.168;2022-09-27T05:16:37;9.20;99.90
21672;DHT22;10997;52.242;8.168;2022-09-27T05:21:38;9.20;99.90
21672;DHT22;10997;52.242;8.168;2022-09-27T05:26:39;9.10;99.90
21672;DHT22;10997;52.242;8.168;2022-09-27T05:31:41;9.10;99.90
21672;DHT22;10997;52.242;8.168;2022-09-27T05:36:41;9.10;99.90
21672;DHT22;10997;52.242;8.168;2022-09-27T05:41:42;9.00;99.90
21672;DHT22;10997;52.242;8.168;2022-09-27T05:46:43;9.00;99.90
21672;DHT22;10997;52.242;8.168;2022-09-27T05:51:45;9.10;99.90
21672;DHT22;10997;52.242;8.168;2022-09-27T05:56:47;9.00;99.90
21672;DHT22;10997;52.242;8.168;2022-09-27T06:01:47;9.10;99.90
21672;DHT22;10997;52.242;8.168;2022-09-27T06:06:48;9.10;99.90
21672;DHT22;10997;52.242;8.168;2022-09-27T06:11:49;9.00;99.90
21672;DHT22;10997;52.242;8.168;2022-09-27T06:16:50;9.00;99.90
21672;DHT22;10997;52.242;8.168;2022-09-27T06:21:54;9.10;99.90
21672;DHT22;10997;52.242;8.168;2022-09-27T06:26:55;9.00;99.90
21672;DHT22;10997;52.242;8.168;2022-09-27T06:31:56;9.00;99.90
21672;DHT22;10997;52.242;8.168;2022-09-27T06:36:58;9.00;99.90
21672;DHT22;10997;52.242;8.168;2022-09-27T06:41:59;9.10;99.90
21672;DHT22;10997;52.242;8.168;2022-09-27T06:47:00;9.30;99.90
21672;DHT22;10997;52.242;8.168;2022-09-27T06:52:00;9.40;99.90
21672;DHT22;10997;52.242;8.168;2022-09-27T06:57:01;9.40;99.90
21672;DHT22;10997;52.242;8.168;2022-09-27T07:02:02;9.50;99.90
21672;DHT22;10997;52.242;8.168;2022-09-27T07:07:02;9.60;99.90
21672;DHT22;10997;52.242;8.168;2022-09-27T07:12:03;9.50;99.90
21672;DHT22;10997;52.242;8.168;2022-09-27T07:17:04;9.60;99.90
21672;DHT22;10997;52.242;8.168;2022-09-27T07:22:05;9.70;99.90
21672;DHT22;10997;52.242;8.168;2022-09-27T07:27:06;9.80;99.90
21672;DHT22;10997;52.242;8.168;2022-09-27T07:32:06;9.80;99.90
21672;DHT22;10997;52.242;8.168;2022-09-27T07:37:07;9.90;99.90
21672;DHT22;10997;52.242;8.168;2022-09-27T07:42:08;10.30;99.90
21672;DHT22;10997;52.242;8.168;2022-09-27T07:47:09;10.30;99.90
21672;DHT22;10997;52.242;8.168;2022-09-27T07:52:10;10.30;99.90
21672;DHT22;10997;52.242;8.168;2022-09-27T07:57:11;10.30;99.90
21672;DHT22;10997;52.242;8.168;2022-09-27T08:02:14;10.30;99.90
21672;DHT22;10997;52.242;8.168;2022-09-27T08:07:15;10.60;99.90
21672;DHT22;10997;52.242;8.168;2022-09-27T08:12:16;10.80;99.90
21672;DHT22;10997;52.242;8.168;2022-09-27T08:17:17;11.10;99.90
21672;DHT22;10997;52.242;8.168;2022-09-27T08:22:18;11.20;99.90
21672;DHT22;10997;52.242;8.168;2022-09-27T08:27:20;11.20;99.90
21672;DHT22;10997;52.242;8.168;2022-09-27T08:32:21;11.20;99.90
21672;DHT22;10997;52.242;8.168;2022-09-27T08:37:21;11.30;99.90
21672;DHT22;10997;52.242;8.168;2022-09-27T08:42:50;11.20;99.90
21672;DHT22;10997;52.242;8.168;2022-09-27T08:47:59;11.20;99.90
21672;DHT22;10997;52.242;8.168;2022-09-27T08:53:35;11.40;99.90
21672;DHT22;10997;52.242;8.168;2022-09-27T08:58:47;11.40;99.90
21672;DHT22;10997;52.242;8.168;2022-09-27T09:03:53;11.30;99.90
21672;DHT22;10997;52.242;8.168;2022-09-27T09:30:21;11.40;99.90
21672;DHT22;10997;52.242;8.168;2022-09-27T09:35:29;11.60;99.90
21672;DHT22;10997;52.242;8.168;2022-09-27T09:45:44;11.90;99.90
21672;DHT22;10997;52.242;8.168;2022-09-27T09:50:48;12.00;99.90
21672;DHT22;10997;52.242;8.168;2022-09-27T09:55:58;11.90;99.90
21672;DHT22;10997;52.242;8.168;2022-09-27T10:01:53;12.00;99.90
21672;DHT22;10997;52.242;8.168;2022-09-27T10:06:47;12.30;99.90
21672;DHT22;10997;52.242;8.168;2022-09-27T10:11:49;12.30;99.90
21672;DHT22;10997;52.242;8.168;2022-09-27T10:16:54;12.50;99.90
21672;DHT22;10997;52.242;8.168;2022-09-27T10:22:01;12.50;99.90
21672;DHT22;10997;52.242;8.168;2022-09-27T10:27:03;12.40;99.90
21672;DHT22;10997;52.242;8.168;2022-09-27T10:32:21;12.70;99.90
21672;DHT22;10997;52.242;8.168;2022-09-27T10:37:23;13.30;99.90
21672;DHT22;10997;52.242;8.168;2022-09-27T10:47:33;13.40;99.90
21672;DHT22;10997;52.242;8.168;2022-09-27T10:52:33;13.30;99.90
21672;DHT22;10997;52.242;8.168;2022-09-27T10:57:34;12.90;99.90
21672;DHT22;10997;52.242;8.168;2022-09-27T11:02:36;12.60;99.90
21672;DHT22;10997;52.242;8.168;2022-09-27T11:07:56;12.50;99.90
21672;DHT22;10997;52.242;8.168;2022-09-27T11:50:44;13.90;99.90
21672;DHT22;10997;52.242;8.168;2022-09-27T12:06:48;13.70;99.90
21672;DHT22;10997;52.242;8.168;2022-09-27T12:12:02;13.50;99.90
21672;DHT22;10997;52.242;8.168;2022-09-27T12:17:07;13.30;99.90
21672;DHT22;10997;52.242;8.168;2022-09-27T12:22:13;13.90;99.90
21672;DHT22;10997;52.242;8.168;2022-09-27T12:38:05;13.10;99.90
21672;DHT22;10997;52.242;8.168;2022-09-27T13:00:05;10.20;99.90
21672;DHT22;10997;52.242;8.168;2022-09-27T13:15:47;11.30;99.90
21672;DHT22;10997;52.242;8.168;2022-09-27T13:20:48;11.50;99.90
21672;DHT22;10997;52.242;8.168;2022-09-27T13:25:59;11.50;99.90
21672;DHT22;10997;52.242;8.168;2022-09-27T13:31:11;11.40;99.90
21672;DHT22;10997;52.242;8.168;2022-09-27T13:41:19;11.50;99.90
21672;DHT22;10997;52.242;8.168;2022-09-27T13:46:23;11.70;99.90
21672;DHT22;10997;52.242;8.168;2022-09-27T14:01:41;11.40;99.90
21672;DHT22;10997;52.242;8.168;2022-09-27T14:06:48;11.50;99.90
21672;DHT22;10997;52.242;8.168;2022-09-27T14:11:56;11.50;99.90
21672;DHT22;10997;52.242;8.168;2022-09-27T14:16:58;11.40;99.90
21672;DHT22;10997;52.242;8.168;2022-09-27T14:22:00;11.50;99.90
21672;DHT22;10997;52.242;8.168;2022-09-27T14:27:35;11.80;99.90
21672;DHT22;10997;52.242;8.168;2022-09-27T14:32:49;11.40;99.90
21672;DHT22;10997;52.242;8.168;2022-09-27T14:37:51;10.50;99.90
21672;DHT22;10997;52.242;8.168;2022-09-27T14:42:54;10.00;99.90
21672;DHT22;10997;52.242;8.168;2022-09-27T14:47:55;9.80;99.90
21672;DHT22;10997;52.242;8.168;2022-09-27T14:52:58;9.70;99.90
21672;DHT22;10997;52.242;8.168;2022-09-27T14:58:01;9.70;99.90
21672;DHT22;10997;52.242;8.168;2022-09-27T15:03:06;9.80;99.90
21672;DHT22;10997;52.242;8.168;2022-09-27T15:08:10;10.10;99.90
21672;DHT22;10997;52.242;8.168;2022-09-27T15:13:15;10.30;99.90
21672;DHT22;10997;52.242;8.168;2022-09-27T15:23:57;10.60;99.90
21672;DHT22;10997;52.242;8.168;2022-09-27T15:29:02;10.60;99.90
21672;DHT22;10997;52.242;8.168;2022-09-27T15:34:04;10.70;99.90
21672;DHT22;10997;52.242;8.168;2022-09-27T15:39:07;10.60;99.90
21672;DHT22;10997;52.242;8.168;2022-09-27T15:44:44;10.60;99.90
21672;DHT22;10997;52.242;8.168;2022-09-27T15:49:45;10.60;99.90
21672;DHT22;10997;52.242;8.168;2022-09-27T15:54:48;10.50;99.90
21672;DHT22;10997;52.242;8.168;2022-09-27T15:59:51;10.50;99.90
21672;DHT22;10997;52.242;8.168;2022-09-27T16:04:52;10.40;99.90
21672;DHT22;10997;52.242;8.168;2022-09-27T16:09:52;10.40;99.90
21672;DHT22;10997;52.242;8.168;2022-09-27T16:14:55;10.40;99.90
21672;DHT22;10997;52.242;8.168;2022-09-27T16:19:56;10.30;99.90
21672;DHT22;10997;52.242;8.168;2022-09-27T16:24:57;10.30;99.90
21672;DHT22;10997;52.242;8.168;2022-09-27T16:29:58;10.30;99.90
21672;DHT22;10997;52.242;8.168;2022-09-27T16:34:58;10.30;99.90
21672;DHT22;10997;52.242;8.168;2022-09-27T16:39:59;10.30;99.90
21672;DHT22;10997;52.242;8.168;2022-09-27T16:45:01;10.20;99.90
21672;DHT22;10997;52.242;8.168;2022-09-27T16:50:03;10.30;99.90
21672;DHT22;10997;52.242;8.168;2022-09-27T16:55:22;10.30;99.90
21672;DHT22;10997;52.242;8.168;2022-09-27T17:00:23;10.10;99.90
21672;DHT22;10997;52.242;8.168;2022-09-27T17:05:24;10.10;99.90
21672;DHT22;10997;52.242;8.168;2022-09-27T17:10:25;10.00;99.90
21672;DHT22;10997;52.242;8.168;2022-09-27T17:15:26;10.00;99.90
21672;DHT22;10997;52.242;8.168;2022-09-27T17:20:27;9.90;99.90
21672;DHT22;10997;52.242;8.168;2022-09-27T17:25:28;9.90;99.90
21672;DHT22;10997;52.242;8.168;2022-09-27T17:30:28;9.80;99.90
21672;DHT22;10997;52.242;8.168;2022-09-27T17:35:29;9.80;99.90
21672;DHT22;10997;52.242;8.168;2022-09-27T17:40:30;9.70;99.90
21672;DHT22;10997;52.242;8.168;2022-09-27T17:45:33;9.70;99.90
21672;DHT22;10997;52.242;8.168;2022-09-27T17:50:33;9.60;99.90
21672;DHT22;10997;52.242;8.168;2022-09-27T17:55:34;9.60;99.90
21672;DHT22;10997;52.242;8.168;2022-09-27T18:00:35;9.50;99.90
21672;DHT22;10997;52.242;8.168;2022-09-27T18:05:36;9.50;99.90
21672;DHT22;10997;52.242;8.168;2022-09-27T18:10:36;9.40;99.90
21672;DHT22;10997;52.242;8.168;2022-09-27T18:15:37;9.40;99.90
21672;DHT22;10997;52.242;8.168;2022-09-27T18:20:38;9.30;99.90
21672;DHT22;10997;52.242;8.168;2022-09-27T18:25:39;9.30;99.90
21672;DHT22;10997;52.242;8.168;2022-09-27T18:30:39;9.20;99.90
21672;DHT22;10997;52.242;8.168;2022-09-27T18:35:40;9.30;99.90
21672;DHT22;10997;52.242;8.168;2022-09-27T18:40:41;9.20;99.90
21672;DHT22;10997;52.242;8.168;2022-09-27T18:45:41;9.20;99.90
21672;DHT22;10997;52.242;8.168;2022-09-27T18:50:42;9.20;99.90
21672;DHT22;10997;52.242;8.168;2022-09-27T18:55:44;9.20;99.90
21672;DHT22;10997;52.242;8.168;2022-09-27T19:00:45;9.20;99.90
21672;DHT22;10997;52.242;8.168;2022-09-27T19:05:53;9.20;99.90
21672;DHT22;10997;52.242;8.168;2022-09-27T19:10:53;9.20;99.90
21672;DHT22;10997;52.242;8.168;2022-09-27T19:15:55;9.10;99.90
21672;DHT22;10997;52.242;8.168;2022-09-27T19:21:08;9.10;99.90
21672;DHT22;10997;52.242;8.168;2022-09-27T19:26:15;9.10;99.90
21672;DHT22;10997;52.242;8.168;2022-09-27T19:31:24;9.10;99.90
21672;DHT22;10997;52.242;8.168;2022-09-27T19:36:26;9.10;99.90
21672;DHT22;10997;52.242;8.168;2022-09-27T19:41:27;9.00;99.90
21672;DHT22;10997;52.242;8.168;2022-09-27T19:46:27;9.00;99.90
21672;DHT22;10997;52.242;8.168;2022-09-27T19:51:28;9.00;99.90
21672;DHT22;10997;52.242;8.168;2022-09-27T19:56:30;9.00;99.90
21672;DHT22;10997;52.242;8.168;2022-09-27T20:01:31;8.90;99.90
21672;DHT22;10997;52.242;8.168;2022-09-27T20:06:32;8.90;99.90
21672;DHT22;10997;52.242;8.168;2022-09-27T20:11:33;8.80;99.90
21672;DHT22;10997;52.242;8.168;2022-09-27T20:16:34;8.80;99.90
21672;DHT22;10997;52.242;8.168;2022-09-27T20:21:35;8.80;99.90
21672;DHT22;10997;52.242;8.168;2022-09-27T20:26:36;8.80;99.90
21672;DHT22;10997;52.242;8.168;2022-09-27T20:31:38;8.80;99.90
21672;DHT22;10997;52.242;8.168;2022-09-27T20:36:42;8.70;99.90
21672;DHT22;10997;52.242;8.168;2022-09-27T20:41:46;8.70;99.90
21672;DHT22;10997;52.242;8.168;2022-09-27T20:46:47;8.60;99.90
21672;DHT22;10997;52.242;8.168;2022-09-27T20:51:47;8.50;99.90
21672;DHT22;10997;52.242;8.168;2022-09-27T20:56:48;8.40;99.90
21672;DHT22;10997;52.242;8.168;2022-09-27T21:01:50;8.30;99.90
21672;DHT22;10997;52.242;8.168;2022-09-27T21:06:51;8.30;99.90
21672;DHT22;10997;52.242;8.168;2022-09-27T21:11:52;8.20;99.90
21672;DHT22;10997;52.242;8.168;2022-09-27T21:16:53;8.20;99.90
21672;DHT22;10997;52.242;8.168;2022-09-27T21:21:53;8.20;99.90
21672;DHT22;10997;52.242;8.168;2022-09-27T21:26:54;8.20;99.90
21672;DHT22;10997;52.242;8.168;2022-09-27T21:31:57;8.30;99.90
21672;DHT22;10997;52.242;8.168;2022-09-27T21:36:57;8.30;99.90
21672;DHT22;10997;52.242;8.168;2022-09-27T21:41:58;8.30;99.90
21672;DHT22;10997;52.242;8.168;2022-09-27T21:46:58;8.30;99.90
21672;DHT22;10997;52.242;8.168;2022-09-27T21:51:59;8.30;99.90
21672;DHT22;10997;52.242;8.168;2022-09-27T21:57:00;8.40;99.90
21672;DHT22;10997;52.242;8.168;2022-09-27T22:02:02;8.40;99.90
21672;DHT22;10997;52.242;8.168;2022-09-27T22:07:02;8.40;99.90
21672;DHT22;10997;52.242;8.168;2022-09-27T22:12:03;8.40;99.90
21672;DHT22;10997;52.242;8.168;2022-09-27T22:17:04;8.50;99.90
21672;DHT22;10997;52.242;8.168;2022-09-27T22:22:04;8.40;99.90
21672;DHT22;10997;52.242;8.168;2022-09-27T22:27:05;8.50;99.90
21672;DHT22;10997;52.242;8.168;2022-09-27T22:32:06;8.40;99.90
21672;DHT22;10997;52.242;8.168;2022-09-27T22:37:06;8.40;99.90
21672;DHT22;10997;52.242;8.168;2022-09-27T22:42:07;8.40;99.90
21672;DHT22;10997;52.242;8.168;2022-09-27T22:47:08;8.40;99.90
21672;DHT22;10997;52.242;8.168;2022-09-27T22:52:08;8.50;99.90
21672;DHT22;10997;52.242;8.168;2022-09-27T22:57:09;8.50;99.90
21672;DHT22;10997;52.242;8.168;2022-09-27T23:02:10;8.50;99.90
21672;DHT22;10997;52.242;8.168;2022-09-27T23:07:10;8.40;99.90
21672;DHT22;10997;52.242;8.168;2022-09-27T23:12:12;8.50;99.90
21672;DHT22;10997;52.242;8.168;2022-09-27T23:17:13;8.50;99.90
21672;DHT22;10997;52.242;8.168;2022-09-27T23:22:15;8.50;99.90
21672;DHT22;10997;52.242;8.168;2022-09-27T23:27:15;8.50;99.90
21672;DHT22;10997;52.242;8.168;2022-09-27T23:32:35;8.50;99.90
21672;DHT22;10997;52.242;8.168;2022-09-27T23:37:36;8.50;99.90
21672;DHT22;10997;52.242;8.168;2022-09-27T23:42:36;8.50;99.90
21672;DHT22;10997;52.242;8.168;2022-09-27T23:47:37;8.50;99.90
21672;DHT22;10997;52.242;8.168;2022-09-27T23:52:39;8.60;99.90
21672;DHT22;10997;52.242;8.168;2022-09-27T23:57:40;8.60;99.90
